createdAt,value
2018-09-22T09:51:26.962Z,1012.22
2018-09-22T09:52:26.952Z,1012.22
2018-09-22T09:53:26.915Z,1012.13
2018-09-22T09:54:26.952Z,1012.11
2018-09-22T09:55:26.882Z,1012.08
2018-09-22T09:56:26.861Z,1012.05
2018-09-22T09:57:26.844Z,1012.00
2018-09-22T09:58:26.840Z,1012.04
2018-09-22T09:59:26.809Z,1011.97
2018-09-22T10:00:26.794Z,1012.01
2018-09-22T10:01:26.777Z,1012.01
2018-09-22T10:02:26.762Z,1012.09
2018-09-22T10:03:26.754Z,1012.11
2018-09-22T10:04:26.771Z,1012.08
2018-09-22T10:05:26.713Z,1012.06
2018-09-22T10:06:26.705Z,1011.96
2018-09-22T10:07:26.678Z,1011.91
2018-09-22T10:08:26.677Z,1011.87
2018-09-22T10:09:26.658Z,1011.86
2018-09-22T10:10:26.662Z,1011.82
2018-09-22T10:11:26.670Z,1011.79
2018-09-22T10:12:26.674Z,1011.77
2018-09-22T10:13:26.672Z,1011.72
2018-09-22T10:14:26.631Z,1011.75
2018-09-22T10:15:26.628Z,1011.73
2018-09-22T10:16:26.547Z,1011.73
2018-09-22T10:17:26.532Z,1011.76
2018-09-22T10:18:26.513Z,1011.75
2018-09-22T10:19:26.504Z,1011.75
2018-09-22T10:20:26.482Z,1011.71
2018-09-22T10:21:26.464Z,1011.73
2018-09-22T10:22:26.451Z,1011.71
2018-09-22T10:23:26.436Z,1011.73
2018-09-22T10:24:26.420Z,1011.74
2018-09-22T10:25:26.402Z,1011.75
2018-09-22T10:26:26.386Z,1011.83
2018-09-22T10:27:26.373Z,1011.81
2018-09-22T10:28:26.391Z,1011.82
2018-09-22T10:29:26.349Z,1011.79
2018-09-22T10:30:26.324Z,1011.80
2018-09-22T10:31:26.312Z,1011.79
2018-09-22T10:32:26.292Z,1011.80
2018-09-22T10:33:26.280Z,1011.82
2018-09-22T10:34:26.280Z,1011.77
2018-09-22T10:35:26.246Z,1011.73
2018-09-22T10:36:26.232Z,1011.70
2018-09-22T10:37:26.216Z,1011.63
2018-09-22T10:38:26.198Z,1011.60
2018-09-22T10:39:26.186Z,1011.55
2018-09-22T10:40:26.176Z,1011.53
2018-09-22T10:41:26.154Z,1011.51
2018-09-22T10:42:26.138Z,1011.52
2018-09-22T10:43:26.126Z,1011.52
2018-09-22T10:44:26.104Z,1011.51
2018-09-22T10:45:26.099Z,1011.55
2018-09-22T10:46:26.073Z,1011.52
2018-09-22T10:47:26.056Z,1011.51
2018-09-22T10:48:26.041Z,1011.50
2018-09-22T10:49:26.024Z,1011.50
2018-09-22T10:50:26.021Z,1011.54
2018-09-22T10:51:25.993Z,1011.55
2018-09-22T10:52:26.004Z,1011.51
2018-09-22T10:53:25.961Z,1011.48
2018-09-22T10:54:25.947Z,1011.51
2018-09-22T10:55:25.938Z,1011.44
2018-09-22T10:56:25.926Z,1011.43
2018-09-22T10:57:25.896Z,1011.44
2018-09-22T10:58:25.900Z,1011.43
2018-09-22T10:59:25.901Z,1011.45
2018-09-22T11:00:25.905Z,1011.50
2018-09-22T11:01:25.901Z,1011.47
2018-09-22T11:02:25.889Z,1011.46
2018-09-22T11:03:25.923Z,1011.42
2018-09-22T11:04:25.858Z,1011.44
2018-09-22T11:05:25.774Z,1011.46
2018-09-22T11:06:25.768Z,1011.47
2018-09-22T11:07:25.741Z,1011.44
2018-09-22T11:08:25.729Z,1011.46
2018-09-22T11:09:25.715Z,1011.51
2018-09-22T11:10:25.699Z,1011.44
2018-09-22T11:11:25.718Z,1011.42
2018-09-22T11:12:25.684Z,1011.43
2018-09-22T11:13:25.654Z,1011.41
2018-09-22T11:14:25.639Z,1011.42
2018-09-22T11:15:25.623Z,1011.43
2018-09-22T11:16:25.608Z,1011.38
2018-09-22T11:17:25.603Z,1011.41
2018-09-22T11:18:25.590Z,1011.44
2018-09-22T11:19:25.565Z,1011.46
2018-09-22T11:20:25.552Z,1011.43
2018-09-22T11:21:25.536Z,1011.49
2018-09-22T11:22:25.533Z,1011.49
2018-09-22T11:23:25.512Z,1011.49
2018-09-22T11:24:25.490Z,1011.50
2018-09-22T11:25:25.475Z,1011.45
2018-09-22T11:26:25.462Z,1011.48
2018-09-22T11:27:25.473Z,1011.44
2018-09-22T11:28:25.435Z,1011.44
2018-09-22T11:29:25.418Z,1011.47
2018-09-22T11:30:25.406Z,1011.45
2018-09-22T11:31:25.389Z,1011.44
2018-09-22T11:32:25.392Z,1011.39
2018-09-22T11:33:25.365Z,1011.33
2018-09-22T11:34:25.347Z,1011.28
2018-09-22T11:35:25.335Z,1011.25
2018-09-22T11:36:25.318Z,1011.27
2018-09-22T11:37:25.312Z,1011.28
2018-09-22T11:38:25.333Z,1011.27
2018-09-22T11:39:25.279Z,1011.27
2018-09-22T11:40:25.265Z,1011.27
2018-09-22T11:41:25.254Z,1011.32
2018-09-22T11:42:25.237Z,1011.28
2018-09-22T11:43:25.223Z,1011.30
2018-09-22T11:44:25.214Z,1011.23
2018-09-22T11:45:25.193Z,1011.18
2018-09-22T11:46:25.180Z,1011.06
2018-09-22T11:47:25.164Z,1011.09
2018-09-22T11:48:25.146Z,1011.09
2018-09-22T11:49:25.177Z,1011.06
2018-09-22T11:50:25.150Z,1011.01
2018-09-22T11:51:25.157Z,1010.99
2018-09-22T11:52:25.155Z,1010.99
2018-09-22T11:53:25.122Z,1010.94
2018-09-22T11:54:25.104Z,1011.00
2018-09-22T11:55:25.106Z,1010.95
2018-09-22T11:56:25.054Z,1010.99
2018-09-22T11:57:25.019Z,1010.95
2018-09-22T11:58:25.005Z,1010.84
2018-09-22T11:59:24.991Z,1010.86
2018-09-22T12:00:24.989Z,1010.88
2018-09-22T12:01:24.972Z,1010.84
2018-09-22T12:02:24.949Z,1010.87
2018-09-22T12:03:24.935Z,1010.91
2018-09-22T12:04:24.921Z,1010.88
2018-09-22T12:05:24.910Z,1010.95
2018-09-22T12:06:24.939Z,1010.90
2018-09-22T12:07:24.872Z,1010.89
2018-09-22T12:08:24.857Z,1010.97
2018-09-22T12:09:24.842Z,1010.99
2018-09-22T12:10:24.845Z,1011.02
2018-09-22T12:11:24.814Z,1011.01
2018-09-22T12:12:24.800Z,1011.05
2018-09-22T12:13:24.784Z,1011.00
2018-09-22T12:14:24.768Z,1011.03
2018-09-22T12:15:24.791Z,1011.00
2018-09-22T12:16:24.741Z,1010.97
2018-09-22T12:17:24.726Z,1010.95
2018-09-22T12:18:24.715Z,1010.94
2018-09-22T12:19:24.698Z,1010.95
2018-09-22T12:20:24.681Z,1010.96
2018-09-22T12:21:24.699Z,1010.97
2018-09-22T12:22:24.654Z,1010.95
2018-09-22T12:23:24.640Z,1011.01
2018-09-22T12:24:24.625Z,1011.05
2018-09-22T12:25:24.610Z,1011.05
2018-09-22T12:26:24.613Z,1011.07
2018-09-22T12:27:24.579Z,1011.04
2018-09-22T12:28:24.566Z,1011.06
2018-09-22T12:29:24.556Z,1011.05
2018-09-22T12:30:24.533Z,1011.00
2018-09-22T12:31:24.523Z,1010.94
2018-09-22T12:32:24.509Z,1010.92
2018-09-22T12:33:24.488Z,1010.91
2018-09-22T12:34:24.480Z,1010.95
2018-09-22T12:35:24.458Z,1010.93
2018-09-22T12:36:24.441Z,1010.92
2018-09-22T12:37:24.439Z,1010.87
2018-09-22T12:38:24.412Z,1010.95
2018-09-22T12:39:24.396Z,1010.95
2018-09-22T12:40:24.390Z,1010.95
2018-09-22T12:41:24.396Z,1011.00
2018-09-22T12:42:24.419Z,1011.09
2018-09-22T12:43:24.408Z,1011.17
2018-09-22T12:44:24.375Z,1011.23
2018-09-22T12:45:24.351Z,1011.22
2018-09-22T12:46:24.357Z,1011.18
2018-09-22T12:47:24.279Z,1011.19
2018-09-22T12:48:24.258Z,1011.26
2018-09-22T12:49:24.241Z,1011.26
2018-09-22T12:50:24.222Z,1011.31
2018-09-22T12:51:24.207Z,1011.28
2018-09-22T12:52:24.204Z,1011.24
2018-09-22T12:53:24.175Z,1011.25
2018-09-22T12:54:24.171Z,1011.15
2018-09-22T12:55:24.144Z,1011.20
2018-09-22T12:56:24.128Z,1011.16
2018-09-22T12:57:24.109Z,1011.12
2018-09-22T12:58:24.105Z,1011.13
2018-09-22T12:59:24.080Z,1011.13
2018-09-22T13:00:24.061Z,1011.08
2018-09-22T13:01:24.043Z,1011.10
2018-09-22T13:02:24.028Z,1011.13
2018-09-22T13:03:24.026Z,1011.16
2018-09-22T13:04:23.996Z,1011.17
2018-09-22T13:05:23.979Z,1011.14
2018-09-22T13:06:23.962Z,1011.12
2018-09-22T13:07:23.946Z,1011.09
2018-09-22T13:08:23.927Z,1011.09
2018-09-22T13:09:23.921Z,1011.07
2018-09-22T13:10:23.900Z,1011.04
2018-09-22T13:11:23.879Z,1010.99
2018-09-22T13:12:23.862Z,1010.96
2018-09-22T13:13:23.864Z,1010.95
2018-09-22T13:14:23.842Z,1010.95
2018-09-22T13:15:23.820Z,1010.97
2018-09-22T13:16:23.800Z,1010.97
2018-09-22T13:17:23.782Z,1011.00
2018-09-22T13:18:23.767Z,1010.92
2018-09-22T13:19:23.764Z,1010.93
2018-09-22T13:20:23.733Z,1010.94
2018-09-22T13:21:23.723Z,1010.95
2018-09-22T13:22:23.702Z,1010.93
2018-09-22T13:23:23.687Z,1010.90
2018-09-22T13:24:23.669Z,1010.88
2018-09-22T13:25:23.664Z,1010.85
2018-09-22T13:26:23.642Z,1010.82
2018-09-22T13:27:23.623Z,1010.81
2018-09-22T13:28:23.622Z,1010.76
2018-09-22T13:29:23.629Z,1010.69
2018-09-22T13:30:23.648Z,1010.68
2018-09-22T13:31:23.627Z,1010.70
2018-09-22T13:32:23.602Z,1010.72
2018-09-22T13:33:23.580Z,1010.73
2018-09-22T13:34:23.583Z,1010.76
2018-09-22T13:35:23.590Z,1010.71
2018-09-22T13:36:23.485Z,1010.70
2018-09-22T13:37:23.470Z,1010.66
2018-09-22T13:38:23.451Z,1010.67
2018-09-22T13:39:23.437Z,1010.65
2018-09-22T13:40:23.425Z,1010.61
2018-09-22T13:41:23.414Z,1010.60
2018-09-22T13:42:23.392Z,1010.60
2018-09-22T13:43:23.377Z,1010.55
2018-09-22T13:44:23.359Z,1010.58
2018-09-22T13:45:23.346Z,1010.57
2018-09-22T13:46:23.339Z,1010.51
2018-09-22T13:47:23.316Z,1010.54
2018-09-22T13:48:23.298Z,1010.50
2018-09-22T13:49:23.283Z,1010.49
2018-09-22T13:50:23.267Z,1010.47
2018-09-22T13:51:23.258Z,1010.49
2018-09-22T13:52:23.239Z,1010.45
2018-09-22T13:53:23.217Z,1010.46
2018-09-22T13:54:23.205Z,1010.51
2018-09-22T13:55:23.188Z,1010.52
2018-09-22T13:56:23.265Z,1010.57
2018-09-22T13:57:23.160Z,1010.55
2018-09-22T13:58:23.144Z,1010.57
2018-09-22T13:59:23.126Z,1010.62
2018-09-22T14:00:23.113Z,1010.62
2018-09-22T14:01:23.107Z,1010.66
2018-09-22T14:02:23.076Z,1010.72
2018-09-22T14:03:23.061Z,1010.73
2018-09-22T14:04:23.045Z,1010.76
2018-09-22T14:05:23.029Z,1010.77
2018-09-22T14:06:23.021Z,1010.82
2018-09-22T14:07:22.999Z,1010.80
2018-09-22T14:08:22.980Z,1010.77
2018-09-22T14:09:22.966Z,1010.81
2018-09-22T14:10:22.953Z,1010.79
2018-09-22T14:11:22.943Z,1010.77
2018-09-22T14:12:22.918Z,1010.82
2018-09-22T14:13:22.905Z,1010.87
2018-09-22T14:14:22.887Z,1010.95
2018-09-22T14:15:22.870Z,1010.97
2018-09-22T14:16:22.891Z,1011.01
2018-09-22T14:17:22.877Z,1011.02
2018-09-22T14:18:22.879Z,1011.05
2018-09-22T14:19:22.851Z,1011.06
2018-09-22T14:20:22.828Z,1011.06
2018-09-22T14:21:22.860Z,1011.15
2018-09-22T14:22:22.757Z,1011.16
2018-09-22T14:23:22.742Z,1011.24
2018-09-22T14:24:22.727Z,1011.29
2018-09-22T14:25:22.707Z,1011.37
2018-09-22T14:26:22.707Z,1011.46
2018-09-22T14:27:22.675Z,1011.42
2018-09-22T14:28:22.660Z,1011.40
2018-09-22T14:29:22.640Z,1011.42
2018-09-22T14:30:22.624Z,1011.43
2018-09-22T14:31:22.610Z,1011.27
2018-09-22T14:32:22.597Z,1011.39
2018-09-22T14:33:22.576Z,1011.22
2018-09-22T14:34:22.561Z,1011.12
2018-09-22T14:35:22.543Z,1010.89
2018-09-22T14:36:22.525Z,1010.99
2018-09-22T14:37:22.528Z,1010.89
2018-09-22T14:38:22.492Z,1010.90
2018-09-22T14:39:22.473Z,1010.87
2018-09-22T14:40:22.459Z,1010.89
2018-09-22T14:41:22.490Z,1010.84
2018-09-22T14:42:22.422Z,1010.92
2018-09-22T14:43:22.413Z,1010.91
2018-09-22T14:44:22.387Z,1010.96
2018-09-22T14:45:22.374Z,1010.99
2018-09-22T14:46:22.352Z,1011.02
2018-09-22T14:47:22.337Z,1011.09
2018-09-22T14:48:22.327Z,1011.11
2018-09-22T14:49:22.302Z,1011.16
2018-09-22T14:50:22.283Z,1011.17
2018-09-22T14:51:22.267Z,1011.14
2018-09-22T14:52:22.248Z,1011.15
2018-09-22T14:53:22.239Z,1011.16
2018-09-22T14:54:22.214Z,1011.11
2018-09-22T14:55:22.194Z,1011.13
2018-09-22T14:56:22.176Z,1011.08
2018-09-22T14:57:22.161Z,1011.07
2018-09-22T14:58:22.150Z,1011.00
2018-09-22T14:59:22.128Z,1011.00
2018-09-22T15:00:22.108Z,1011.03
2018-09-22T15:01:22.092Z,1011.05
2018-09-22T15:02:22.098Z,1011.06
2018-09-22T15:03:22.125Z,1011.05
2018-09-22T15:04:22.108Z,1011.04
2018-09-22T15:05:22.077Z,1011.11
2018-09-22T15:06:22.055Z,1011.14
2018-09-22T15:07:21.985Z,1011.20
2018-09-22T15:08:21.979Z,1011.16
2018-09-22T15:09:21.958Z,1011.14
2018-09-22T15:10:21.929Z,1011.09
2018-09-22T15:11:21.912Z,1011.08
2018-09-22T15:12:21.895Z,1011.04
2018-09-22T15:13:21.877Z,1010.99
2018-09-22T15:14:21.869Z,1010.91
2018-09-22T15:15:21.842Z,1010.89
2018-09-22T15:16:21.823Z,1010.92
2018-09-22T15:17:21.866Z,1010.88
2018-09-22T15:18:21.788Z,1010.89
2018-09-22T15:19:21.801Z,1010.84
2018-09-22T15:20:21.752Z,1010.83
2018-09-22T15:21:21.735Z,1010.84
2018-09-22T15:22:21.716Z,1010.87
2018-09-22T15:23:21.699Z,1010.98
2018-09-22T15:24:21.680Z,1011.04
